Impacts TAF Board INFO
FOR SITUATIONAL AWARENESS. NOT TO BE USED FOR FLIGHT PLANNING PURPOSES.
IDs:

KJFK - New York/Kennedy Int, NY, US

Issued at 2333 UTC 19 Sep 2017
Updated at 0202 UTC 20 Sep 2017
Potential Impact None Slight Moderate High
Time0151Z 20/03Z 20/04Z 20/05Z 20/06Z 20/07Z 20/08Z 20/09Z 20/10Z 20/11Z 20/12Z 20/13Z 20/14Z 20/15Z>>
Type OBS PRVL PRVL PRVL PRVL PRVL PRVL PRVL PRVL PRVL PRVL PRVL PRVL PRVL
VIS 10 >6 >6 >6 >6 >6 >6 >6 >6 >6 >6 >6 >6 >6
CIG 29 20 20 20 20 20 20 20 20 20 20 20 30 30
Cover OVC OVC OVC OVC OVC OVC OVC OVC OVC OVC OVC OVC BKN BKN
FltCat MVFR MVFR MVFR MVFR MVFR MVFR MVFR MVFR MVFR MVFR MVFR MVFR MVFR MVFR
WX -- -- -- -- -- -- -- -- -- -- -- -- -- --
WDir 20 10 10 10 10 10 10 10 10 10 10 10 350 350
WSpd 15 20 20 20 20 20 20 20 20 20 20 20 18 18
WGst 26 30 30 30 30 30 30 30 30 30 30 30 25 25

Raw TAF
KJFK 192333Z 2000/2106 01020G30KT P6SM VCSH SCT020 BKN040
  FM200100 01020G30KT P6SM OVC020
  FM201400 35018G25KT P6SM BKN030
  FM201700 34018G25KT P6SM SCT030 OVC250
  FM202100 34013G20KT P6SM SCT035 OVC250
  FM210200 34011KT P6SM FEW030 OVC250


Raw METAR
KJFK 200151Z 02015G26KT 10SM BKN029 BKN055 BKN150 OVC200 22/18 A2986 RMK AO2 PK WND 02027/0137 SLP112 T02220183
KJFK 200137Z COR 02020G27KT 10SM BKN027 BKN033 BKN055 BKN150 OVC200 22/18 A2987 RMK AO2 PK WND 02027/0137 T02170183
KJFK 200051Z 02019G24KT 10SM FEW017 SCT047 BKN150 OVC200 22/18 A2987 RMK AO2 PK WND 03028/0002 SLP115 T02170183
KJFK 192351Z 01014G25KT 10SM FEW020 OVC032 21/19 A2987 RMK AO2 PK WND 02027/2252 RAB2258E14B32E41 SLP114 P0000 60024 T02110189 10222 20206 56007

METAR Board
Radar Display
Forecast Discussion

FOR SITUATIONAL AWARENESS. NOT TO BE USED FOR FLIGHT PLANNING PURPOSES.